logo meteosardegna

Diretta Meteo Decimomannu, Italialunedì 15 luglio ore 10:55

Mappa
Sereno 32 °C Sereno 24 Ore: T.min 20 T.max 35
Ponente Ovest/Sud-Ovest Km/h 7.4 Punto di rugiada: 14 °C Umidità: 33% Visibilità: 10 Km
Il sole sorge alle: 06:08 Il sole tramonta alle: 20:51
15 Luglio 2024 10:55 tempo osservato: Sereno Sereno 32 33 1012 vento: Nord O/SO 7.4
15 Luglio 2024 09:55 tempo osservato: Sereno Sereno 29 48 1012 vento: Nord N 5.5
15 Luglio 2024 08:55 tempo osservato: Sereno Sereno 26 61 1012 vento: Nord N 3.7
15 Luglio 2024 07:55 tempo osservato: Sereno Sereno 23 73 1012 vento: Nord N 3.7
15 Luglio 2024 06:55 tempo osservato: Sereno Sereno 20 82 1012 vento: Nord N 3.7
15 Luglio 2024 05:55 tempo osservato: Sereno Sereno 21 94 1012 vento: Nord N 3.7
15 Luglio 2024 04:55 tempo osservato: Sereno Sereno 21 94 1011 vento: Nord N 1.8
15 Luglio 2024 03:55 tempo osservato: Sereno Sereno 22 94 1012 vento: Nord N 5.5
15 Luglio 2024 02:55 tempo osservato: Sereno Sereno 23 94 1012 vento: Nord N 5.5
15 Luglio 2024 01:55 tempo osservato: Sereno Sereno 23 88 1012 vento: Nord N 5.5
15 Luglio 2024 00:55 tempo osservato: Sereno Sereno 24 88 1012 vento: Nord N/NO 7.4
14 Luglio 2024 23:55 tempo osservato: Sereno Sereno 24 83 1012 vento: Nord N/NO 13
14 Luglio 2024 22:55 tempo osservato: Sereno Sereno 25 73 1012 vento: Nord N 13
14 Luglio 2024 21:55 tempo osservato: Sereno Sereno 27 57 1012 vento: Nord NO 11.1
14 Luglio 2024 20:55 tempo osservato: Sereno Sereno 29 51 1011 vento: Nord N/NO 11.1
14 Luglio 2024 19:55 tempo osservato: Sereno Sereno 31 66 1011 vento: Nord SE 9.3
14 Luglio 2024 18:55 tempo osservato: Sereno Sereno 32 59 1011 vento: Nord S 11.1
14 Luglio 2024 17:55 tempo osservato: Sereno Sereno 33 49 1010 vento: Nord S/SE 14.8
14 Luglio 2024 16:55 tempo osservato: Sereno Sereno 34 24 1010 vento: Nord S/SE 16.7
14 Luglio 2024 15:55 tempo osservato: Sereno Sereno 35 21 1011 vento: Nord S/SE 18.5
14 Luglio 2024 14:55 tempo osservato: Sereno Sereno 35 26 1011 vento: Nord S/SE 18.5
14 Luglio 2024 13:55 tempo osservato: Sereno Sereno 34 28 1011 vento: Nord S/SE 20.3
14 Luglio 2024 12:55 tempo osservato: Sereno Sereno 33 49 1011 vento: Nord S 16.7
14 Luglio 2024 11:55 tempo osservato: Sereno Sereno 34 24 1011 vento: Nord S/SE 14.8